Time;durP1;ratioP1;P1;durP2;ratioP2;P2;SDS_P1;SDS_P2;PMS_P1;PMS_P2;Temp;Humidity;BMP_temperature;BMP_pressure;BME280_temperature;BME280_humidity;BME280_pressure;Samples;Min_cycle;Max_cycle;Signal;HPM_P1;HPM_P2
2023/06/10 00:00:36;;;;;;;5.50;5.10;;;26.70;51.50;;;;;;5007265;28;20894;-67
2023/06/10 00:03:04;;;;;;;5.47;5.07;;;26.80;51.60;;;;;;5015073;28;20442;-66
2023/06/10 00:05:34;;;;;;;6.17;5.77;;;26.80;51.50;;;;;;5022893;28;20493;-67
2023/06/10 00:08:07;;;;;;;5.80;5.40;;;26.80;51.50;;;;;;5022781;28;20446;-67
2023/06/10 00:10:36;;;;;;;6.03;5.63;;;26.70;51.50;;;;;;5014203;28;20468;-68
2023/06/10 00:13:08;;;;;;;5.53;5.23;;;26.70;51.40;;;;;;5065262;28;20511;-68
2023/06/10 00:15:37;;;;;;;6.10;5.60;;;26.80;51.50;;;;;;5026370;28;20918;-68
2023/06/10 00:18:05;;;;;;;6.20;5.80;;;26.80;51.60;;;;;;5038418;28;20502;-67
2023/06/10 00:20:37;;;;;;;6.33;5.90;;;26.70;51.40;;;;;;5035137;28;20517;-68
2023/06/10 00:23:08;;;;;;;6.30;5.70;;;26.70;51.40;;;;;;5036844;28;20935;-68
2023/06/10 00:25:36;;;;;;;6.37;5.97;;;26.70;51.50;;;;;;5031696;28;20484;-69
2023/06/10 00:28:06;;;;;;;6.03;5.53;;;26.70;51.50;;;;;;5032246;28;20436;-68
2023/06/10 00:30:35;;;;;;;6.37;5.97;;;26.70;51.40;;;;;;5039125;28;20453;-68
2023/06/10 00:33:03;;;;;;;6.03;5.53;;;26.70;51.40;;;;;;5020350;28;20448;-68
2023/06/10 00:35:31;;;;;;;5.63;5.23;;;26.70;52.70;;;;;;5027867;28;20479;-68
2023/06/10 00:38:01;;;;;;;6.50;5.87;;;26.70;51.40;;;;;;5036823;28;20862;-68
2023/06/10 00:40:29;;;;;;;6.00;5.50;;;26.70;51.50;;;;;;5039812;28;21018;-68
2023/06/10 00:42:59;;;;;;;6.13;5.73;;;26.70;51.40;;;;;;5029635;28;20448;-68
2023/06/10 00:45:29;;;;;;;5.73;5.33;;;26.70;51.50;;;;;;5027514;28;20472;-68
2023/06/10 00:47:59;;;;;;;6.50;5.93;;;26.70;51.40;;;;;;5035142;28;20469;-68
2023/06/10 00:50:28;;;;;;;5.97;5.57;;;26.70;51.40;;;;;;5024449;28;20485;-68
2023/06/10 00:52:57;;;;;;;6.30;5.80;;;26.70;51.50;;;;;;5021718;28;20436;-68
2023/06/10 00:55:27;;;;;;;6.10;5.70;;;26.70;51.50;;;;;;5029560;28;20473;-68
2023/06/10 00:57:55;;;;;;;6.63;6.13;;;26.70;51.40;;;;;;5026891;28;20443;-67
2023/06/10 01:00:24;;;;;;;6.30;5.80;;;26.70;51.50;;;;;;5026722;28;20446;-69
2023/06/10 01:02:53;;;;;;;5.80;5.40;;;26.70;51.50;;;;;;5022908;28;20965;-68
2023/06/10 01:05:23;;;;;;;6.73;6.30;;;26.70;51.40;;;;;;5010666;28;20470;-68
2023/06/10 01:08:00;;;;;;;6.80;6.30;;;26.70;51.50;;;;;;5020605;28;20809;-68
2023/06/10 01:10:36;;;;;;;6.37;5.87;;;26.70;51.60;;;;;;5034009;28;21110;-68
2023/06/10 01:13:08;;;;;;;5.90;5.50;;;26.70;51.60;;;;;;5030382;28;20428;-68
2023/06/10 01:15:36;;;;;;;7.30;6.70;;;26.60;51.40;;;;;;5028611;28;21023;-68
2023/06/10 01:18:09;;;;;;;7.50;6.80;;;26.70;51.50;;;;;;5017109;28;20458;-68
2023/06/10 01:20:40;;;;;;;6.90;6.33;;;26.70;51.60;;;;;;5042399;28;20468;-68
2023/06/10 01:23:11;;;;;;;5.93;5.43;;;26.60;51.50;;;;;;5027557;28;20436;-68
2023/06/10 01:25:44;;;;;;;6.00;5.60;;;26.60;51.50;;;;;;5014570;28;20465;-68
2023/06/10 01:28:16;;;;;;;7.40;6.80;;;26.60;51.30;;;;;;5040563;28;20456;-68
2023/06/10 01:30:51;;;;;;;6.23;5.73;;;26.60;51.50;;;;;;5027851;28;20472;-68
2023/06/10 01:33:26;;;;;;;5.43;5.13;;;26.60;51.50;;;;;;5022329;28;20459;-69
2023/06/10 01:35:58;;;;;;;5.93;5.50;;;26.60;51.50;;;;;;5006294;28;20493;-67
2023/06/10 01:38:31;;;;;;;6.33;5.93;;;26.60;51.50;;;;;;5024043;28;20444;-68
2023/06/10 01:41:01;;;;;;;6.20;5.80;;;26.60;51.50;;;;;;5032788;28;20462;-68
2023/06/10 01:43:29;;;;;;;6.80;6.30;;;26.60;51.50;;;;;;5027354;28;20437;-68
2023/06/10 01:45:57;;;;;;;6.13;5.63;;;26.60;51.60;;;;;;5027424;28;20490;-68
2023/06/10 01:48:26;;;;;;;6.50;6.00;;;26.60;51.50;;;;;;5040416;28;20822;-68
2023/06/10 01:50:55;;;;;;;6.10;5.70;;;26.60;51.60;;;;;;5016570;28;20479;-67
2023/06/10 01:53:24;;;;;;;6.40;6.00;;;26.60;51.60;;;;;;5040722;28;20490;-68
2023/06/10 01:55:56;;;;;;;6.43;5.93;;;26.60;51.60;;;;;;5013438;28;20476;-68
2023/06/10 01:58:24;;;;;;;5.70;5.30;;;26.60;51.60;;;;;;5017993;28;20453;-68
2023/06/10 02:00:53;;;;;;;6.00;5.50;;;26.60;51.60;;;;;;5012834;28;20903;-68
2023/06/10 02:03:21;;;;;;;6.70;6.20;;;26.60;51.60;;;;;;5030327;28;20706;-68
2023/06/10 02:05:50;;;;;;;6.00;5.60;;;26.50;51.60;;;;;;5020787;28;20483;-68
2023/06/10 02:08:18;;;;;;;6.63;6.13;;;26.50;51.60;;;;;;5034466;28;20457;-68
2023/06/10 02:10:48;;;;;;;6.47;5.97;;;26.50;51.70;;;;;;5037413;28;20452;-66
2023/06/10 02:13:17;;;;;;;6.03;5.63;;;26.50;51.60;;;;;;5062772;28;20497;-68
2023/06/10 02:15:46;;;;;;;6.77;6.27;;;26.50;51.70;;;;;;5022442;28;20552;-68
2023/06/10 02:18:15;;;;;;;6.40;6.00;;;26.50;51.70;;;;;;5033088;28;20451;-69
2023/06/10 02:20:44;;;;;;;6.70;6.17;;;26.50;51.60;;;;;;5028657;28;20467;-68
2023/06/10 02:23:12;;;;;;;6.93;6.43;;;26.50;51.70;;;;;;5033067;28;20951;-68
2023/06/10 02:25:41;;;;;;;7.13;6.53;;;26.50;51.70;;;;;;5034764;28;20502;-68
2023/06/10 02:28:09;;;;;;;6.57;6.10;;;26.50;51.60;;;;;;5027974;28;20455;-68
2023/06/10 02:30:42;;;;;;;6.67;6.17;;;26.50;51.70;;;;;;5012103;28;20705;-68
2023/06/10 02:33:10;;;;;;;6.70;6.20;;;26.50;51.70;;;;;;5026693;28;20549;-68
2023/06/10 02:35:40;;;;;;;5.73;5.33;;;26.50;51.70;;;;;;5027383;28;20559;-68
2023/06/10 02:38:08;;;;;;;5.90;5.50;;;26.50;51.70;;;;;;5035001;28;20864;-68
2023/06/10 02:40:37;;;;;;;7.23;6.57;;;26.50;51.70;;;;;;5016000;28;20451;-69
2023/06/10 02:43:05;;;;;;;6.87;6.47;;;26.50;51.60;;;;;;5018822;28;20451;-68
2023/06/10 02:45:34;;;;;;;6.97;6.47;;;26.50;51.60;;;;;;5039240;28;20467;-68
2023/06/10 02:48:06;;;;;;;6.37;5.87;;;26.50;51.70;;;;;;5023829;28;20539;-68
2023/06/10 02:50:35;;;;;;;6.67;6.17;;;26.50;51.80;;;;;;5024435;28;20521;-68
2023/06/10 02:53:24;;;;;;;6.97;6.47;;;26.40;51.60;;;;;;5033481;28;20837;-68
2023/06/10 02:55:59;;;;;;;6.67;6.17;;;26.40;51.70;;;;;;5021494;28;20898;-68
2023/06/10 02:58:28;;;;;;;6.57;6.17;;;26.40;51.60;;;;;;5043498;28;20783;-68
2023/06/10 03:00:58;;;;;;;7.70;5.70;;;26.40;51.60;;;;;;5035735;28;21013;-68
2023/06/10 03:03:30;;;;;;;6.17;5.67;;;26.40;51.60;;;;;;5039989;28;20435;-69
2023/06/10 03:06:05;;;;;;;6.13;5.73;;;26.40;51.70;;;;;;5020541;28;20968;-68
2023/06/10 03:08:35;;;;;;;5.70;5.30;;;26.40;51.80;;;;;;5019814;28;20840;-67
2023/06/10 03:11:07;;;;;;;6.80;5.77;;;26.40;51.80;;;;;;5022919;28;20541;-68
2023/06/10 03:13:39;;;;;;;6.73;6.23;;;26.40;51.70;;;;;;5006431;28;20443;-69
2023/06/10 03:16:12;;;;;;;6.37;5.90;;;26.40;51.80;;;;;;5027819;28;20459;-68
2023/06/10 03:18:42;;;;;;;6.17;5.77;;;26.40;51.80;;;;;;5031035;28;20522;-68
2023/06/10 03:21:11;;;;;;;6.33;5.93;;;26.40;51.80;;;;;;5023960;28;21004;-68
2023/06/10 03:23:40;;;;;;;6.40;6.00;;;26.40;51.80;;;;;;5024424;28;20446;-68
2023/06/10 03:26:09;;;;;;;6.53;6.03;;;26.40;51.80;;;;;;5021792;28;20477;-68
2023/06/10 03:28:40;;;;;;;6.90;6.30;;;26.40;51.80;;;;;;5030339;28;20445;-68
2023/06/10 03:31:09;;;;;;;6.47;5.87;;;26.40;51.90;;;;;;5021070;28;20540;-68
2023/06/10 03:33:38;;;;;;;5.93;5.53;;;26.40;51.90;;;;;;5010071;28;20957;-69
2023/06/10 03:36:09;;;;;;;5.70;5.40;;;26.30;51.80;;;;;;5027199;28;20468;-68
2023/06/10 03:38:38;;;;;;;5.77;5.37;;;26.30;51.80;;;;;;5026546;28;20864;-69
2023/06/10 03:41:08;;;;;;;6.03;5.53;;;26.30;51.80;;;;;;5020082;28;20473;-67
2023/06/10 03:43:40;;;;;;;5.67;5.37;;;26.30;51.80;;;;;;5016679;28;20433;-68
2023/06/10 03:46:09;;;;;;;5.70;5.40;;;26.30;51.80;;;;;;5012994;28;20475;-68
2023/06/10 03:48:39;;;;;;;6.40;5.90;;;26.30;51.80;;;;;;5018063;28;20463;-68
2023/06/10 03:51:09;;;;;;;6.40;5.90;;;26.30;52.00;;;;;;5026676;28;20474;-68
2023/06/10 03:53:38;;;;;;;5.57;5.13;;;26.30;51.90;;;;;;5026741;28;20461;-68
2023/06/10 03:56:06;;;;;;;6.60;6.00;;;26.30;52.00;;;;;;5032561;28;20484;-68
2023/06/10 03:58:35;;;;;;;6.27;5.77;;;26.30;52.00;;;;;;5041633;28;20535;-68
2023/06/10 04:01:07;;;;;;;5.83;5.43;;;26.30;52.00;;;;;;5025184;28;20477;-68
2023/06/10 04:03:36;;;;;;;6.33;5.90;;;26.30;52.00;;;;;;5025179;28;20449;-69
2023/06/10 04:06:05;;;;;;;5.90;5.50;;;26.30;52.10;;;;;;5022184;28;20506;-68
2023/06/10 04:08:35;;;;;;;5.77;5.37;;;26.30;52.10;;;;;;5027585;28;20446;-68
2023/06/10 04:11:04;;;;;;;6.33;5.83;;;26.20;52.00;;;;;;5026806;28;21099;-68
2023/06/10 04:13:32;;;;;;;6.43;5.93;;;26.20;52.00;;;;;;5036295;28;20964;-68
2023/06/10 04:16:02;;;;;;;5.90;5.50;;;26.20;52.00;;;;;;5018120;28;20498;-68
2023/06/10 04:18:30;;;;;;;5.30;4.90;;;26.20;52.10;;;;;;5018852;28;20486;-68
2023/06/10 04:21:03;;;;;;;6.03;5.63;;;26.20;52.00;;;;;;5019869;28;20466;-68
2023/06/10 04:23:36;;;;;;;5.90;5.50;;;26.20;52.00;;;;;;5036264;28;20463;-68
2023/06/10 04:26:05;;;;;;;6.00;5.60;;;26.20;52.00;;;;;;5042664;28;20477;-68
2023/06/10 04:28:34;;;;;;;5.97;5.57;;;26.20;52.30;;;;;;5034759;28;20431;-68
2023/06/10 04:31:03;;;;;;;6.03;5.63;;;26.20;52.10;;;;;;5024910;28;20490;-67
2023/06/10 04:33:32;;;;;;;5.87;5.47;;;26.20;52.20;;;;;;5027191;28;20442;-66
2023/06/10 04:36:03;;;;;;;7.20;6.70;;;26.20;52.10;;;;;;5026810;28;20469;-68
2023/06/10 04:38:32;;;;;;;6.07;5.57;;;26.20;52.20;;;;;;5032470;28;20958;-68
2023/06/10 04:41:03;;;;;;;6.33;5.83;;;26.20;52.30;;;;;;5012082;28;20508;-69
2023/06/10 04:43:35;;;;;;;5.67;5.27;;;26.20;52.40;;;;;;5019865;28;21009;-68
2023/06/10 04:46:05;;;;;;;6.10;5.70;;;26.20;52.30;;;;;;5031578;28;20502;-68
2023/06/10 04:48:37;;;;;;;6.30;5.70;;;26.10;52.30;;;;;;5019927;28;20481;-68
2023/06/10 04:51:06;;;;;;;6.20;5.80;;;26.10;52.20;;;;;;5022060;28;20510;-69
2023/06/10 04:53:34;;;;;;;6.13;5.73;;;26.10;52.30;;;;;;5020363;28;20454;-68
2023/06/10 04:56:04;;;;;;;6.03;5.63;;;26.10;52.40;;;;;;5023929;28;20482;-68
2023/06/10 04:58:33;;;;;;;6.60;6.00;;;26.10;52.50;;;;;;5026113;28;20450;-68
2023/06/10 05:01:01;;;;;;;6.30;5.80;;;26.10;53.60;;;;;;5024772;28;20517;-68
2023/06/10 05:03:30;;;;;;;5.93;5.53;;;26.10;52.60;;;;;;5015804;28;21010;-68
2023/06/10 05:05:59;;;;;;;5.97;5.57;;;26.10;52.50;;;;;;5025049;28;20474;-68
2023/06/10 05:08:27;;;;;;;5.70;5.27;;;26.10;52.70;;;;;;5039786;28;20478;-68
2023/06/10 05:10:55;;;;;;;6.80;6.30;;;26.10;52.60;;;;;;5018822;28;20493;-68
2023/06/10 05:13:25;;;;;;;6.63;6.23;;;26.10;52.70;;;;;;5037962;28;20452;-67
2023/06/10 05:15:54;;;;;;;6.40;5.90;;;26.10;52.50;;;;;;5019307;28;20464;-68
2023/06/10 05:18:22;;;;;;;7.57;7.07;;;26.10;52.50;;;;;;5017057;28;20439;-68
2023/06/10 05:20:51;;;;;;;6.90;6.40;;;26.10;52.40;;;;;;5033848;28;20475;-68
2023/06/10 05:23:19;;;;;;;6.67;6.17;;;26.10;52.40;;;;;;5020857;28;20453;-67
2023/06/10 05:25:48;;;;;;;6.53;6.13;;;26.10;52.40;;;;;;5028647;28;20577;-66
2023/06/10 05:28:16;;;;;;;6.53;6.10;;;26.10;52.30;;;;;;5039874;28;20479;-67
2023/06/10 05:30:46;;;;;;;6.30;5.90;;;26.10;52.30;;;;;;5037931;28;20438;-68
2023/06/10 05:33:14;;;;;;;7.20;6.60;;;26.10;52.40;;;;;;5017996;28;20476;-68
2023/06/10 05:35:43;;;;;;;6.77;6.17;;;26.10;52.30;;;;;;5032278;28;20848;-68
2023/06/10 05:38:11;;;;;;;7.00;6.40;;;26.10;52.20;;;;;;5033505;28;20454;-67
2023/06/10 05:40:40;;;;;;;6.97;6.37;;;26.10;52.10;;;;;;5036359;28;20455;-68
2023/06/10 05:43:09;;;;;;;6.80;6.30;;;26.10;52.30;;;;;;5035822;28;20443;-68
2023/06/10 05:45:40;;;;;;;5.10;4.70;;;26.10;52.20;;;;;;5025878;28;20481;-67
2023/06/10 05:48:10;;;;;;;6.17;5.77;;;26.10;52.40;;;;;;5036494;28;20990;-67
2023/06/10 05:50:40;;;;;;;6.80;6.20;;;26.10;52.40;;;;;;5017969;28;20479;-68
2023/06/10 05:53:14;;;;;;;7.40;6.30;;;26.10;52.40;;;;;;5026665;28;20998;-67
2023/06/10 05:55:44;;;;;;;6.60;6.10;;;26.10;52.30;;;;;;5030199;28;20479;-68
2023/06/10 05:58:13;;;;;;;5.90;5.50;;;26.10;52.40;;;;;;5026570;28;20863;-68
2023/06/10 06:00:42;;;;;;;6.60;6.10;;;26.10;52.40;;;;;;5028980;28;20673;-67
2023/06/10 06:03:12;;;;;;;6.50;6.00;;;26.10;52.40;;;;;;5032693;28;20560;-68
2023/06/10 06:05:40;;;;;;;7.27;6.77;;;26.10;52.40;;;;;;5033384;28;20515;-67
2023/06/10 06:08:09;;;;;;;7.03;6.53;;;26.10;53.70;;;;;;5029193;28;20503;-68
2023/06/10 06:10:37;;;;;;;5.80;5.40;;;26.10;52.60;;;;;;5023702;28;20486;-68
2023/06/10 06:13:06;;;;;;;6.10;5.70;;;26.10;52.60;;;;;;5018325;28;20890;-68
2023/06/10 06:15:34;;;;;;;7.13;6.60;;;26.10;52.70;;;;;;5022045;28;20481;-67
2023/06/10 06:18:02;;;;;;;6.43;5.93;;;26.10;52.30;;;;;;5028825;28;20506;-67
2023/06/10 06:20:32;;;;;;;6.77;6.27;;;26.10;52.60;;;;;;5028788;28;20947;-66
2023/06/10 06:23:00;;;;;;;10.40;9.23;;;26.10;52.40;;;;;;5037265;28;20937;-68
2023/06/10 06:25:28;;;;;;;10.80;9.80;;;26.00;49.90;;;;;;5023411;28;21037;-69
2023/06/10 06:27:57;;;;;;;10.50;9.60;;;25.90;48.30;;;;;;5019190;28;20465;-69
2023/06/10 06:30:25;;;;;;;10.80;9.77;;;25.80;46.10;;;;;;5024329;28;20965;-66
2023/06/10 06:32:55;;;;;;;11.30;10.30;;;25.60;48.30;;;;;;5020547;28;20457;-67
2023/06/10 06:35:23;;;;;;;11.10;10.20;;;25.50;49.50;;;;;;5036766;28;20477;-67
2023/06/10 06:37:53;;;;;;;9.80;9.00;;;25.60;49.90;;;;;;5023869;28;20989;-68
2023/06/10 06:40:26;;;;;;;10.40;9.60;;;25.60;50.20;;;;;;5021111;28;20446;-67
2023/06/10 06:42:55;;;;;;;10.57;9.70;;;25.70;50.30;;;;;;5025717;28;20518;-68
2023/06/10 06:45:42;;;;;;;10.60;9.70;;;25.70;50.30;;;;;;5017487;28;20492;-66
2023/06/10 06:48:10;;;;;;;10.87;9.93;;;25.80;50.20;;;;;;5017320;28;20474;-68
2023/06/10 06:50:38;;;;;;;10.80;9.90;;;25.80;50.20;;;;;;5022850;28;20952;-67
2023/06/10 06:53:08;;;;;;;10.23;9.50;;;25.80;50.20;;;;;;5016263;28;20464;-67
2023/06/10 06:55:37;;;;;;;10.20;9.40;;;25.90;50.20;;;;;;5022165;28;20482;-67
2023/06/10 06:58:05;;;;;;;12.90;10.40;;;25.80;50.10;;;;;;5021149;28;20502;-67
2023/06/10 07:00:34;;;;;;;9.77;9.03;;;25.90;50.30;;;;;;5019532;28;20807;-68
2023/06/10 07:03:02;;;;;;;11.87;10.70;;;25.90;50.50;;;;;;5030447;28;20447;-67
2023/06/10 07:05:31;;;;;;;9.90;9.07;;;25.90;50.00;;;;;;5023461;28;20537;-68
2023/06/10 07:07:59;;;;;;;10.77;9.87;;;25.90;50.20;;;;;;5023941;28;20560;-69
2023/06/10 07:10:30;;;;;;;14.40;9.60;;;;;;;;;;5020481;28;20510;-68
2023/06/10 07:12:58;;;;;;;10.10;9.20;;;26.10;47.70;;;;;;5034019;28;20879;-65
2023/06/10 07:15:27;;;;;;;10.30;9.40;;;26.10;49.20;;;;;;5005145;28;20464;-66
2023/06/10 07:17:56;;;;;;;9.80;9.00;;;26.10;49.40;;;;;;5022080;28;20967;-68
2023/06/10 07:20:25;;;;;;;10.97;9.90;;;26.00;49.40;;;;;;5035783;28;20552;-68
2023/06/10 07:22:53;;;;;;;10.50;9.60;;;26.00;49.60;;;;;;5031625;28;20448;-68
2023/06/10 07:25:22;;;;;;;9.70;8.57;;;26.00;50.00;;;;;;5017536;28;20475;-67
2023/06/10 07:27:52;;;;;;;8.70;8.00;;;26.00;50.00;;;;;;5020600;28;20446;-68
2023/06/10 07:30:20;;;;;;;9.67;8.97;;;26.00;50.20;;;;;;5018706;28;21156;-68
2023/06/10 07:32:49;;;;;;;10.20;9.30;;;26.00;50.20;;;;;;5015977;28;20484;-67
2023/06/10 07:35:17;;;;;;;10.37;9.47;;;26.00;50.40;;;;;;5022638;28;21072;-66
2023/06/10 07:37:45;;;;;;;9.87;8.87;;;26.00;50.50;;;;;;5011297;28;20448;-68
2023/06/10 07:40:14;;;;;;;9.03;8.43;;;26.00;50.70;;;;;;5023523;28;20524;-68
2023/06/10 07:42:43;;;;;;;10.47;9.57;;;25.90;50.80;;;;;;5014367;28;20450;-68
2023/06/10 07:45:13;;;;;;;9.60;8.90;;;26.00;50.80;;;;;;5031629;28;20514;-68
2023/06/10 07:47:43;;;;;;;9.03;8.33;;;26.00;50.90;;;;;;5022874;28;20448;-67
2023/06/10 07:50:12;;;;;;;9.73;8.93;;;25.90;50.80;;;;;;5026912;28;20474;-67
2023/06/10 07:52:40;;;;;;;9.70;9.00;;;26.00;50.90;;;;;;5037091;28;20442;-67
2023/06/10 07:55:09;;;;;;;9.83;9.03;;;26.00;51.10;;;;;;5026140;28;21383;-66
2023/06/10 07:57:38;;;;;;;9.13;8.43;;;26.00;52.20;;;;;;5022392;28;20453;-68
2023/06/10 08:00:08;;;;;;;8.57;7.97;;;26.00;51.10;;;;;;5021864;28;20423;-67
2023/06/10 08:02:41;;;;;;;8.93;8.23;;;26.00;51.20;;;;;;5020140;28;20531;-68
2023/06/10 08:05:09;;;;;;;8.40;7.80;;;26.00;51.30;;;;;;5017752;28;20460;-68
2023/06/10 08:07:38;;;;;;;8.90;8.20;;;26.00;51.30;;;;;;5025147;28;20470;-67
2023/06/10 08:10:07;;;;;;;9.17;8.37;;;26.00;51.40;;;;;;5018511;28;20472;-68
2023/06/10 08:12:37;;;;;;;8.03;7.43;;;26.00;51.60;;;;;;5019162;28;20447;-67
2023/06/10 08:15:06;;;;;;;8.13;7.43;;;26.00;51.50;;;;;;5009044;28;20490;-68
2023/06/10 08:17:36;;;;;;;8.00;7.40;;;26.00;51.50;;;;;;5032992;28;20832;-67
2023/06/10 08:20:07;;;;;;;8.50;7.80;;;26.00;51.50;;;;;;5019096;28;20468;-67
2023/06/10 08:22:36;;;;;;;8.10;7.50;;;26.00;51.50;;;;;;5028362;28;21431;-67
2023/06/10 08:25:05;;;;;;;8.13;7.53;;;26.00;51.50;;;;;;5014734;28;20450;-66
2023/06/10 08:27:34;;;;;;;8.27;7.57;;;26.00;51.60;;;;;;5016366;28;21158;-67
2023/06/10 08:30:04;;;;;;;8.10;7.50;;;26.00;51.50;;;;;;5018005;28;20586;-67
2023/06/10 08:32:33;;;;;;;8.57;7.97;;;26.00;51.50;;;;;;5029355;28;20447;-66
2023/06/10 08:35:01;;;;;;;8.50;7.90;;;26.00;51.60;;;;;;5037758;28;20531;-72
2023/06/10 08:37:31;;;;;;;7.60;7.00;;;26.00;51.60;;;;;;5015480;28;20535;-71
2023/06/10 08:39:59;;;;;;;8.10;7.50;;;26.00;51.70;;;;;;5034536;28;20444;-71
2023/06/10 08:42:35;;;;;;;8.03;7.43;;;26.00;51.70;;;;;;5022724;28;20559;-71
2023/06/10 08:45:05;;;;;;;7.90;7.30;;;26.00;51.70;;;;;;5011731;28;20530;-71
2023/06/10 08:47:38;;;;;;;8.13;7.53;;;26.00;51.80;;;;;;5029526;28;20456;-72
2023/06/10 08:50:08;;;;;;;7.93;7.30;;;25.90;51.70;;;;;;5022756;28;20481;-71
2023/06/10 08:52:44;;;;;;;7.70;7.10;;;26.00;52.00;;;;;;5026092;28;20470;-71
2023/06/10 08:55:17;;;;;;;8.17;7.57;;;26.00;52.10;;;;;;5016667;28;20473;-70
2023/06/10 08:57:47;;;;;;;7.70;7.13;;;26.00;52.00;;;;;;5024626;28;20460;-71
2023/06/10 09:00:17;;;;;;;7.83;7.33;;;26.00;52.00;;;;;;5030614;28;20461;-71
2023/06/10 09:02:46;;;;;;;7.77;7.17;;;26.00;52.10;;;;;;5021536;28;20490;-72
2023/06/10 09:05:15;;;;;;;8.50;7.90;;;26.00;52.10;;;;;;5032259;28;20480;-71
2023/06/10 09:07:46;;;;;;;7.87;7.27;;;26.00;52.10;;;;;;5020698;28;20481;-71
2023/06/10 09:10:16;;;;;;;7.00;6.50;;;26.00;52.10;;;;;;5020691;28;21418;-71
2023/06/10 09:12:44;;;;;;;7.70;7.00;;;26.00;52.10;;;;;;5025677;28;20478;-72
2023/06/10 09:15:14;;;;;;;8.00;7.40;;;26.00;52.10;;;;;;5021680;28;20444;-71
2023/06/10 09:17:43;;;;;;;7.70;7.07;;;26.00;52.10;;;;;;5019939;28;20456;-72
2023/06/10 09:20:12;;;;;;;7.27;6.77;;;26.00;52.20;;;;;;5016534;28;20476;-71
2023/06/10 09:22:44;;;;;;;8.67;7.97;;;26.00;52.10;;;;;;5021541;28;20484;-71
2023/06/10 09:25:13;;;;;;;7.73;7.13;;;26.00;52.10;;;;;;5034963;28;20459;-71
2023/06/10 09:27:49;;;;;;;7.80;7.20;;;26.00;52.10;;;;;;5023852;28;20452;-72
2023/06/10 09:30:29;;;;;;;7.37;6.83;;;26.00;52.10;;;;;;5021808;28;20537;-71
2023/06/10 09:32:59;;;;;;;7.70;7.10;;;26.00;52.10;;;;;;5030168;28;20462;-71
2023/06/10 09:35:30;;;;;;;7.93;7.33;;;26.00;52.10;;;;;;5032897;28;20471;-71
2023/06/10 09:38:02;;;;;;;8.13;7.53;;;26.00;52.00;;;;;;5026793;28;20786;-72
2023/06/10 09:40:30;;;;;;;8.00;7.30;;;26.00;52.10;;;;;;5020172;28;20479;-71
2023/06/10 09:43:01;;;;;;;7.83;7.23;;;26.00;52.10;;;;;;5028816;28;20489;-71
2023/06/10 09:45:32;;;;;;;7.53;7.03;;;26.00;52.20;;;;;;5021512;28;20525;-72
2023/06/10 09:48:01;;;;;;;8.13;7.30;;;26.00;52.10;;;;;;5036085;28;20475;-71
2023/06/10 09:50:34;;;;;;;7.43;6.90;;;26.00;52.20;;;;;;5028975;28;20467;-71
2023/06/10 09:53:07;;;;;;;7.60;7.10;;;26.00;52.10;;;;;;5042475;28;20458;-71
2023/06/10 09:55:39;;;;;;;8.57;7.80;;;26.00;52.50;;;;;;5024065;28;20482;-70
2023/06/10 09:58:08;;;;;;;8.63;7.93;;;26.20;48.70;;;;;;5022730;28;20445;-71
2023/06/10 10:00:37;;;;;;;10.37;9.57;;;26.40;44.80;;;;;;5024923;28;20445;-71
2023/06/10 10:03:06;;;;;;;9.37;8.43;;;26.60;45.20;;;;;;5024277;28;20443;-72
2023/06/10 10:05:35;;;;;;;10.23;9.23;;;26.80;44.70;;;;;;5022013;28;20483;-71
2023/06/10 10:08:05;;;;;;;8.97;8.10;;;26.60;45.60;;;;;;5028253;28;20454;-71
2023/06/10 10:10:34;;;;;;;9.80;9.00;;;26.40;46.00;;;;;;5029189;28;21015;-71
2023/06/10 10:13:03;;;;;;;8.97;8.07;;;26.40;46.80;;;;;;5016456;28;20466;-70
2023/06/10 10:15:36;;;;;;;10.33;9.20;;;26.30;47.00;;;;;;5024632;28;20483;-71
2023/06/10 10:18:09;;;;;;;9.90;9.00;;;26.20;47.50;;;;;;5040925;28;20560;-71
2023/06/10 10:20:46;;;;;;;10.23;9.23;;;26.20;48.10;;;;;;5021732;28;20444;-70
2023/06/10 10:23:22;;;;;;;9.57;8.67;;;26.10;48.50;;;;;;5013729;28;21084;-71
2023/06/10 10:25:54;;;;;;;9.23;8.43;;;26.10;48.70;;;;;;5033085;28;20513;-71
2023/06/10 10:28:26;;;;;;;9.10;8.40;;;26.10;48.90;;;;;;5033604;28;20503;-69
2023/06/10 10:31:04;;;;;;;8.53;7.77;;;26.10;49.10;;;;;;5031497;28;20951;-69
2023/06/10 10:33:41;;;;;;;8.23;7.70;;;26.10;49.40;;;;;;5016231;28;20447;-70
2023/06/10 10:36:10;;;;;;;9.30;8.40;;;26.10;49.40;;;;;;5022898;28;21020;-72
2023/06/10 10:38:40;;;;;;;9.07;8.33;;;26.10;49.60;;;;;;5022081;28;20817;-70
2023/06/10 10:41:10;;;;;;;10.57;9.57;;;26.10;49.70;;;;;;5013765;28;20610;-70
2023/06/10 10:43:39;;;;;;;10.63;9.43;;;26.10;49.80;;;;;;5006903;28;20457;-72
2023/06/10 10:46:13;;;;;;;15.23;9.27;;;26.20;49.70;;;;;;5034143;28;21074;-71
2023/06/10 10:48:42;;;;;;;10.43;9.53;;;26.20;49.70;;;;;;5016518;28;20444;-71
2023/06/10 10:51:11;;;;;;;10.53;9.50;;;26.20;49.70;;;;;;5024989;28;20493;-72
2023/06/10 10:53:44;;;;;;;9.67;8.83;;;26.10;49.90;;;;;;5023002;28;20485;-70
2023/06/10 10:56:15;;;;;;;9.50;8.70;;;26.10;50.00;;;;;;5037330;28;20525;-71
2023/06/10 10:58:43;;;;;;;9.67;8.83;;;26.10;50.10;;;;;;5014469;28;20451;-71
2023/06/10 11:01:14;;;;;;;9.23;8.53;;;26.20;50.10;;;;;;5016269;28;20462;-72
2023/06/10 11:03:47;;;;;;;9.63;8.63;;;26.20;49.80;;;;;;5035300;28;20454;-72
2023/06/10 11:06:17;;;;;;;8.77;7.97;;;26.10;49.90;;;;;;5034636;28;20489;-70
2023/06/10 11:08:50;;;;;;;9.70;8.37;;;26.10;49.80;;;;;;5036306;28;20450;-71
2023/06/10 11:11:21;;;;;;;10.63;9.00;;;26.10;49.80;;;;;;5038134;28;21109;-71
2023/06/10 11:14:06;;;;;;;8.37;7.73;;;26.10;49.80;;;;;;5020891;28;20484;-71
2023/06/10 11:16:40;;;;;;;9.60;8.80;;;26.10;50.00;;;;;;5020007;28;20518;-71
2023/06/10 11:19:09;;;;;;;8.53;7.90;;;26.10;50.00;;;;;;5030942;28;20449;-71
2023/06/10 11:22:01;;;;;;;9.23;8.53;;;26.10;49.90;;;;;;5015802;28;20459;-71
2023/06/10 11:24:31;;;;;;;10.10;7.77;;;26.10;50.00;;;;;;5012017;28;20976;-71
2023/06/10 11:27:18;;;;;;;8.57;7.87;;;26.20;50.20;;;;;;5021631;28;21019;-72
2023/06/10 11:29:57;;;;;;;8.90;8.20;;;26.20;50.20;;;;;;5012434;28;20965;-71
2023/06/10 11:32:31;;;;;;;8.83;8.13;;;26.20;50.10;;;;;;5014137;28;20450;-72
2023/06/10 11:35:00;;;;;;;8.57;7.80;;;26.20;50.20;;;;;;5024688;28;20446;-71
2023/06/10 11:37:29;;;;;;;8.60;7.90;;;26.20;50.20;;;;;;5015720;28;20482;-71
2023/06/10 11:40:00;;;;;;;9.17;8.47;;;26.20;50.30;;;;;;5016931;28;20447;-71
2023/06/10 11:42:29;;;;;;;8.30;7.70;;;26.20;50.30;;;;;;5034206;28;20451;-72
2023/06/10 11:44:59;;;;;;;9.60;8.80;;;26.20;50.10;;;;;;5033461;28;20458;-70
2023/06/10 11:47:29;;;;;;;8.70;8.10;;;26.20;49.80;;;;;;5039852;28;20475;-67
2023/06/10 11:49:58;;;;;;;9.17;8.17;;;26.20;50.00;;;;;;5020881;28;20447;-67
2023/06/10 11:52:32;;;;;;;8.90;8.20;;;26.20;50.00;;;;;;5030854;28;20471;-67
2023/06/10 11:55:02;;;;;;;8.90;8.20;;;26.20;49.70;;;;;;5028853;28;20542;-68
2023/06/10 11:57:31;;;;;;;8.50;7.80;;;26.20;49.90;;;;;;5015714;28;20976;-68
2023/06/10 12:00:05;;;;;;;8.60;8.00;;;26.20;50.00;;;;;;5022757;28;20518;-68
2023/06/10 12:02:38;;;;;;;8.70;7.73;;;26.20;50.00;;;;;;5012062;28;20445;-68
2023/06/10 12:05:13;;;;;;;8.17;7.50;;;26.30;49.90;;;;;;5016171;28;20505;-66
2023/06/10 12:07:42;;;;;;;8.87;8.00;;;26.30;49.90;;;;;;5017680;28;20443;-67
2023/06/10 12:10:13;;;;;;;8.50;7.80;;;26.30;49.90;;;;;;5041097;28;20770;-67
2023/06/10 12:12:54;;;;;;;8.50;7.80;;;26.30;49.80;;;;;;5022473;28;20516;-68
2023/06/10 12:15:26;;;;;;;8.00;7.40;;;26.30;49.70;;;;;;5033408;28;20849;-67
2023/06/10 12:17:55;;;;;;;10.93;8.40;;;26.30;49.90;;;;;;5040472;28;20494;-68
2023/06/10 12:20:29;;;;;;;8.10;7.50;;;26.40;48.30;;;;;;5023757;28;20450;-67
2023/06/10 12:22:58;;;;;;;9.17;8.03;;;26.40;47.30;;;;;;5040970;28;20443;-68
2023/06/10 12:25:29;;;;;;;8.50;7.80;;;26.40;47.30;;;;;;5027702;28;20528;-68
2023/06/10 12:27:59;;;;;;;9.67;8.87;;;26.40;47.50;;;;;;5026192;28;20477;-67
2023/06/10 12:30:28;;;;;;;8.17;7.57;;;26.40;48.30;;;;;;5021087;28;20450;-66
2023/06/10 12:32:57;;;;;;;9.07;8.17;;;26.40;48.40;;;;;;5025081;28;20873;-68
2023/06/10 12:35:28;;;;;;;8.77;8.07;;;26.40;48.40;;;;;;5010629;28;20498;-67
2023/06/10 12:37:59;;;;;;;9.20;8.40;;;26.40;48.60;;;;;;5020383;28;20438;-68
2023/06/10 12:40:31;;;;;;;8.87;8.17;;;26.40;48.80;;;;;;5028605;28;20447;-68
2023/06/10 12:43:00;;;;;;;8.77;8.07;;;26.40;49.00;;;;;;5023437;28;20444;-67
2023/06/10 12:45:30;;;;;;;11.93;9.73;;;26.40;49.00;;;;;;5024630;28;20471;-68
2023/06/10 12:48:10;;;;;;;8.70;8.10;;;26.50;50.80;;;;;;5016839;28;20442;-68
2023/06/10 12:50:39;;;;;;;9.00;8.20;;;26.50;49.60;;;;;;5009995;28;20455;-65
2023/06/10 12:53:09;;;;;;;8.73;8.00;;;26.50;49.10;;;;;;5021725;28;20471;-66
2023/06/10 12:55:39;;;;;;;9.10;8.20;;;26.50;48.90;;;;;;5018447;28;20512;-68
2023/06/10 12:58:07;;;;;;;8.97;8.27;;;26.50;48.90;;;;;;5037890;28;20519;-68
2023/06/10 13:00:36;;;;;;;9.03;8.10;;;26.50;48.90;;;;;;5025580;28;20470;-68